Time;durP1;ratioP1;P1;durP2;ratioP2;P2;SDS_P1;SDS_P2;PMS_P1;PMS_P2;Temp;Humidity;BMP_temperature;BMP_pressure;BME280_temperature;BME280_humidity;BME280_pressure;Samples;Min_cycle;Max_cycle;Signal;HPM_P1;HPM_P2
2022/09/16 00:01:16;;;;;;;;;2.00;2.00;;;;;17.95;52.49;100597.66;4836893;29;45815;-75
2022/09/16 00:03:45;;;;;;;;;5.00;4.25;;;;;17.98;52.33;100594.69;4823449;29;46080;-74
2022/09/16 00:06:29;;;;;;;;;5.00;5.00;;;;;18.02;53.00;100609.31;4840528;29;46732;-76
2022/09/16 00:08:57;;;;;;;;;5.00;4.50;;;;;17.96;52.95;100599.34;4840173;29;45675;-76
2022/09/16 00:11:22;;;;;;;;;5.25;4.00;;;;;18.00;52.80;100613.94;4844465;29;45973;-75
2022/09/16 00:13:48;;;;;;;;;4.00;4.00;;;;;17.89;52.61;100601.78;4831506;29;46521;-76
2022/09/16 00:16:23;;;;;;;;;4.25;4.00;;;;;17.87;52.80;100601.09;4842083;29;46373;-76
2022/09/16 00:18:53;;;;;;;;;4.75;4.50;;;;;17.90;53.25;100622.00;4834303;29;45812;-74
2022/09/16 00:21:18;;;;;;;;;4.75;4.00;;;;;17.79;52.83;100613.47;4839609;29;45660;-74
2022/09/16 00:23:43;;;;;;;;;5.00;4.00;;;;;17.78;53.58;100617.94;4839475;29;46898;-76
2022/09/16 00:26:09;;;;;;;;;4.75;4.75;;;;;17.70;53.57;100630.31;4840025;29;45789;-72
2022/09/16 00:28:34;;;;;;;;;4.25;4.00;;;;;17.58;53.68;100627.88;4846818;29;45570;-74
2022/09/16 00:31:00;;;;;;;;;5.75;5.25;;;;;17.53;54.28;100622.19;4843332;29;45779;-76
2022/09/16 00:33:30;;;;;;;;;5.25;5.00;;;;;17.50;54.22;100633.09;4851629;29;45960;-75
2022/09/16 00:36:16;;;;;;;;;5.25;4.50;;;;;17.39;54.28;100619.25;4849166;29;46502;-76
2022/09/16 00:38:43;;;;;;;;;4.50;4.50;;;;;17.40;54.77;100635.00;4845361;29;45940;-74
2022/09/16 00:41:15;;;;;;;;;3.25;3.25;;;;;17.36;55.03;100628.34;4846795;29;46616;-77
2022/09/16 00:43:57;;;;;;;;;6.00;5.00;;;;;17.31;55.38;100630.63;4839417;29;45953;-75
2022/09/16 00:46:29;;;;;;;;;5.00;5.00;;;;;17.27;55.50;100637.22;4845340;29;48031;-73
2022/09/16 00:48:56;;;;;;;;;5.00;5.00;;;;;17.23;56.00;100629.69;4839062;29;46051;-74
2022/09/16 00:51:24;;;;;;;;;3.00;3.00;;;;;17.21;55.56;100629.88;4839475;29;46323;-76
2022/09/16 00:53:55;;;;;;;;;6.00;5.00;;;;;17.22;55.62;100636.00;4839769;29;46311;-77
2022/09/16 00:56:25;;;;;;;;;6.00;5.00;;;;;17.22;56.15;100633.34;4839556;29;46584;-74
2022/09/16 00:59:00;;;;;;;;;6.25;6.00;;;;;17.19;56.21;100637.13;4839990;29;45750;-76
2022/09/16 01:01:27;;;;;;;;;7.00;6.50;;;;;17.13;56.51;100619.19;4842604;29;46015;-76
2022/09/16 01:03:57;;;;;;;;;7.50;7.00;;;;;17.17;56.11;100629.31;4827959;29;47321;-77
2022/09/16 01:06:25;;;;;;;;;5.00;5.00;;;;;17.17;56.56;100625.81;4844550;29;47073;-77
2022/09/16 01:08:51;;;;;;;;;8.00;6.00;;;;;17.11;56.61;100607.94;4843425;29;45779;-74
2022/09/16 01:11:17;;;;;;;;;7.00;5.25;;;;;17.14;56.73;100600.50;4825531;29;45874;-75
2022/09/16 01:13:44;;;;;;;;;4.00;3.50;;;;;17.24;56.34;100620.78;4848078;29;46551;-77
2022/09/16 01:16:15;;;;;;;;;4.25;4.00;;;;;17.18;56.41;100607.16;4841271;29;46988;-75
2022/09/16 01:19:12;;;;;;;;;5.00;5.00;;;;;17.26;56.57;100624.94;4851109;29;45784;-77
2022/09/16 01:21:47;;;;;;;;;8.00;6.25;;;;;17.25;57.01;100628.56;4839055;29;46145;-73
2022/09/16 01:24:49;;;;;;;;;7.50;6.00;;;;;17.20;56.72;100636.13;4844118;29;45940;-73
2022/09/16 01:27:28;;;;;;;;;6.00;5.00;;;;;17.19;57.38;100632.66;4835499;29;46093;-75
2022/09/16 01:30:26;;;;;;;;;7.75;5.00;;;;;17.08;57.42;100624.09;4839349;29;46184;-75
2022/09/16 01:33:15;;;;;;;;;5.00;5.00;;;;;17.06;57.40;100631.34;4838650;29;46361;-77
2022/09/16 01:36:23;;;;;;;;;6.00;5.25;;;;;16.97;57.97;100624.31;4837784;29;46703;-74
2022/09/16 01:39:17;;;;;;;;;7.25;6.25;;;;;16.92;58.24;100629.22;4779277;29;47441;-77
2022/09/16 01:41:56;;;;;;;;;6.25;5.00;;;;;16.89;58.29;100625.06;4765511;29;45904;-71
2022/09/16 01:44:41;;;;;;;;;5.25;5.25;;;;;16.86;58.27;100625.34;4781807;29;46203;-70
2022/09/16 01:47:38;;;;;;;;;7.00;6.25;;;;;16.84;58.63;100622.03;4783732;29;46385;-72
2022/09/16 01:50:18;;;;;;;;;6.00;6.00;;;;;16.82;58.78;100626.63;4781817;29;47160;-77
2022/09/16 01:53:16;;;;;;;;;7.00;6.00;;;;;16.82;58.64;100624.00;4782745;29;45819;-75
2022/09/16 01:55:57;;;;;;;;;8.00;7.00;;;;;16.79;58.92;100619.81;4783305;29;46093;-73
2022/09/16 01:58:47;;;;;;;;;5.00;5.00;;;;;16.81;58.76;100617.03;4783738;29;47400;-76
2022/09/16 02:01:22;;;;;;;;;8.00;6.50;;;;;16.78;58.59;100606.75;4783431;29;46147;-77
2022/09/16 02:04:03;;;;;;;;;7.00;7.00;;;;;16.83;59.16;100622.19;4777042;29;46359;-77
2022/09/16 02:06:31;;;;;;;;;6.75;6.00;;;;;16.83;58.89;100620.38;4782907;29;45692;-77
2022/09/16 02:09:03;;;;;;;;;7.00;5.75;;;;;16.79;59.04;100622.47;4783842;29;46463;-75
2022/09/16 02:11:32;;;;;;;;;7.75;7.00;;;;;16.72;59.28;100613.47;4783441;29;46439;-76
2022/09/16 02:14:42;;;;;;;;;8.25;6.75;;;;;16.74;59.38;100616.78;4783541;29;46163;-73
2022/09/16 02:17:38;;;;;;;;;6.25;6.00;;;;;16.67;59.35;100607.81;4748897;29;45817;-76
2022/09/16 02:20:16;;;;;;;;;8.00;7.00;;;;;16.51;59.68;100572.34;4765462;29;47142;-75
2022/09/16 02:22:53;;;;;;;;;7.75;7.00;;;;;16.67;59.60;100609.59;4762415;29;48184;-78
2022/09/16 02:25:22;;;;;;;;;7.50;6.25;;;;;16.24;59.84;100538.81;4749518;29;46182;-72
2022/09/16 02:27:49;;;;;;;;;5.00;5.00;;;;;16.68;60.14;100625.31;4766389;29;45923;-78
2022/09/16 02:30:19;;;;;;;;;9.25;7.25;;;;;16.61;60.52;100616.31;4768117;29;45823;-74
2022/09/16 02:32:57;;;;;;;;;10.00;8.00;;;;;16.57;60.57;100612.25;4765141;29;46449;-75
2022/09/16 02:35:25;;;;;;;;;7.50;7.25;;;;;16.49;60.57;100595.47;4772741;29;45866;-76
2022/09/16 02:38:01;;;;;;;;;9.25;7.75;;;;;16.53;60.72;100602.13;4766468;29;46311;-77
2022/09/16 02:40:43;;;;;;;;;10.75;9.00;;;;;16.54;60.88;100601.97;4766244;29;47430;-77
2022/09/16 02:43:09;;;;;;;;;8.00;7.25;;;;;16.54;60.88;100595.84;4771187;29;48466;-75
2022/09/16 02:45:58;;;;;;;;;8.75;7.00;;;;;16.54;60.82;100594.03;4766130;29;45763;-76
2022/09/16 02:49:07;;;;;;;;;6.00;6.00;;;;;16.60;61.13;100600.59;4776935;29;45750;-74
2022/09/16 02:51:47;;;;;;;;;7.25;7.25;;;;;16.60;60.96;100592.66;4729441;30;46383;-75
2022/09/16 02:54:26;;;;;;;;;7.50;6.50;;;;;16.58;61.06;100592.75;4761208;29;46592;-74
2022/09/16 02:56:56;;;;;;;;;7.75;6.50;;;;;16.55;61.01;100595.72;4826004;29;45820;-73
2022/09/16 02:59:24;;;;;;;;;12.00;8.25;;;;;16.54;61.29;100585.28;4841070;29;45817;-73
2022/09/16 03:01:49;;;;;;;;;8.00;7.00;;;;;16.61;61.21;100595.16;4833546;29;47364;-76
2022/09/16 03:07:40;;;;;;;;;7.00;6.00;;;;;16.60;61.00;100584.72;4824487;29;45662;-76
2022/09/16 03:10:26;;;;;;;;;6.75;6.00;;;;;16.57;61.34;100577.06;4824545;29;45687;-77
2022/09/16 03:13:08;;;;;;;;;5.50;5.50;;;;;16.57;60.90;100591.09;4824545;29;45536;-76
2022/09/16 03:15:57;;;;;;;;;7.00;7.00;;;;;16.48;61.38;100575.28;4824631;29;45941;-74
2022/09/16 03:18:31;;;;;;;;;6.00;5.25;;;;;16.54;61.46;100587.91;4824141;29;45795;-73
2022/09/16 03:24:30;;;;;;;;;4.00;4.00;;;;;16.50;61.14;100589.19;4824683;29;45782;-75
2022/09/16 03:27:18;;;;;;;;;7.00;6.00;;;;;16.46;61.18;100591.31;4825288;29;45717;-73
2022/09/16 03:32:59;;;;;;;;;6.75;5.00;;;;;16.23;61.46;100558.31;4823738;29;45677;-73
2022/09/16 03:35:39;;;;;;;;;7.00;6.00;;;;;16.23;61.59;100556.50;4824497;29;45855;-73
2022/09/16 03:38:07;;;;;;;;;7.25;6.00;;;;;16.27;61.71;100570.25;4824053;29;46253;-76
2022/09/16 03:40:36;;;;;;;;;5.75;5.75;;;;;16.29;61.37;100585.00;4824115;29;45779;-75
2022/09/16 03:43:16;;;;;;;;;6.00;6.00;;;;;16.10;61.40;100576.28;4824384;29;45784;-76
2022/09/16 03:45:42;;;;;;;;;6.75;5.50;;;;;16.12;61.65;100606.91;4824196;29;45613;-76
2022/09/16 03:48:13;;;;;;;;;5.00;5.00;;;;;15.77;61.77;100554.72;4822625;29;46300;-77
2022/09/16 03:50:40;;;;;;;;;7.00;5.00;;;;;15.75;62.27;100556.69;4824068;29;45716;-74
2022/09/16 03:53:14;;;;;;;;;5.50;4.50;;;;;16.00;62.00;100600.13;4822328;29;45972;-76
2022/09/16 03:55:45;;;;;;;;;5.75;5.00;;;;;15.98;62.19;100598.63;4823755;29;47447;-74
2022/09/16 03:58:10;;;;;;;;;7.75;7.00;;;;;15.89;62.62;100593.19;4807224;29;47229;-74
2022/09/16 04:00:45;;;;;;;;;4.50;3.75;;;;;16.00;62.55;100601.94;4807289;29;45737;-76
2022/09/16 04:03:10;;;;;;;;;6.25;5.00;;;;;16.01;62.12;100612.38;4822225;29;45544;-74
2022/09/16 04:05:39;;;;;;;;;8.00;7.50;;;;;15.99;62.81;100602.91;4823511;29;46737;-77
2022/09/16 04:08:04;;;;;;;;;8.50;7.50;;;;;15.41;62.71;100506.13;4822004;29;48169;-74
2022/09/16 04:10:30;;;;;;;;;5.00;5.00;;;;;15.60;62.89;100567.84;4823519;29;45764;-76
2022/09/16 04:12:57;;;;;;;;;7.25;6.00;;;;;15.68;62.84;100570.59;4823568;29;45862;-72
2022/09/16 04:15:22;;;;;;;;;7.50;6.75;;;;;15.80;62.93;100596.72;4823290;29;46535;-73
2022/09/16 04:17:48;;;;;;;;;8.50;8.50;;;;;15.63;62.32;100576.31;4823723;29;46554;-75
2022/09/16 04:20:13;;;;;;;;;7.00;6.00;;;;;15.53;63.03;100573.69;4823450;29;45669;-75
2022/09/16 04:22:39;;;;;;;;;7.25;7.25;;;;;15.77;63.28;100617.28;4823586;29;45523;-75
2022/09/16 04:25:17;;;;;;;;;8.25;7.00;;;;;15.58;63.65;100604.13;4823269;29;46448;-77
2022/09/16 04:27:42;;;;;;;;;9.25;7.75;;;;;15.66;63.34;100618.28;4822394;29;46313;-74
2022/09/16 04:30:08;;;;;;;;;6.75;6.50;;;;;15.22;63.80;100558.97;4823660;29;45647;-72
2022/09/16 04:32:43;;;;;;;;;9.75;8.75;;;;;15.57;63.80;100621.75;4806722;29;45682;-77
2022/09/16 04:35:11;;;;;;;;;5.75;5.75;;;;;15.51;64.33;100624.94;4805532;29;45801;-76
2022/09/16 04:37:42;;;;;;;;;11.75;9.00;;;;;15.52;64.21;100622.19;4823325;29;45661;-74
2022/09/16 04:40:09;;;;;;;;;6.75;6.25;;;;;15.20;64.04;100575.91;4806735;29;45859;-75
2022/09/16 04:42:39;;;;;;;;;9.75;7.50;;;;;15.09;64.50;100546.03;4822071;29;45698;-75
2022/09/16 04:45:08;;;;;;;;;9.50;7.50;;;;;15.53;64.24;100621.22;4823228;29;47452;-74
2022/09/16 04:47:34;;;;;;;;;8.25;7.25;;;;;15.52;64.47;100624.84;4823221;29;45705;-73
2022/09/16 04:50:00;;;;;;;;;10.25;8.00;;;;;15.49;64.74;100625.06;4806607;29;45942;-78
2022/09/16 04:52:25;;;;;;;;;8.00;7.75;;;;;15.42;64.65;100608.13;4823382;29;45812;-75
2022/09/16 04:54:50;;;;;;;;;10.00;8.00;;;;;15.42;64.90;100609.94;4823441;29;45578;-75
2022/09/16 04:57:16;;;;;;;;;11.75;11.00;;;;;15.36;64.58;100599.94;4822801;29;45728;-74
2022/09/16 04:59:41;;;;;;;;;12.75;10.25;;;;;15.43;64.97;100617.72;4823013;29;45690;-76
2022/09/16 05:02:06;;;;;;;;;11.50;10.00;;;;;15.41;64.97;100618.81;4823009;29;45820;-72
2022/09/16 05:11:17;;;;;;;;;8.50;8.00;;;;;15.31;65.43;100621.47;4823149;29;45880;-78
2022/09/16 05:13:46;;;;;;;;;10.25;7.50;;;;;15.29;65.69;100615.50;4823444;29;45874;-76
2022/09/16 05:16:13;;;;;;;;;9.25;8.75;;;;;15.26;65.73;100599.94;4823263;29;46534;-78
2022/09/16 05:18:41;;;;;;;;;12.25;10.75;;;;;15.05;65.45;100560.50;4822059;29;46528;-74
2022/09/16 05:21:10;;;;;;;;;10.75;10.25;;;;;15.32;65.39;100596.75;4806138;29;45869;-75
2022/09/16 05:23:36;;;;;;;;;13.50;11.00;;;;;15.45;65.30;100622.84;4822984;29;45936;-77
2022/09/16 05:26:11;;;;;;;;;12.75;12.25;;;;;15.49;65.54;100616.34;4821447;29;45918;-73
2022/09/16 05:28:37;;;;;;;;;10.00;10.00;;;;;15.53;65.03;100615.09;4822560;29;46324;-76
2022/09/16 05:31:20;;;;;;;;;12.50;11.75;;;;;15.59;64.90;100626.91;4822880;29;45767;-77
2022/09/16 05:34:07;;;;;;;;;11.50;10.50;;;;;15.64;64.98;100622.03;4822801;29;45870;-75
2022/09/16 05:36:36;;;;;;;;;10.25;9.25;;;;;15.54;64.92;100600.94;4813059;29;46472;-76
2022/09/16 05:39:05;;;;;;;;;11.00;11.00;;;;;15.73;64.73;100622.03;4822452;29;47439;-76
2022/09/16 05:41:31;;;;;;;;;10.00;8.75;;;;;15.67;64.75;100611.19;4822649;29;45633;-77
2022/09/16 05:44:00;;;;;;;;;12.00;10.25;;;;;15.73;64.83;100618.53;4822632;29;45555;-76
2022/09/16 05:46:27;;;;;;;;;14.00;12.25;;;;;15.83;64.76;100632.56;4822277;29;45541;-76
2022/09/16 05:48:53;;;;;;;;;12.00;10.25;;;;;15.85;64.68;100634.09;4822031;29;46287;-73
2022/09/16 05:51:20;;;;;;;;;8.25;8.00;;;;;15.78;65.07;100621.59;4822643;29;45687;-76
2022/09/16 05:53:47;;;;;;;;;10.75;10.75;;;;;15.83;64.68;100641.31;4822458;29;45836;-72
2022/09/16 05:56:25;;;;;;;;;12.50;8.75;;;;;15.87;64.31;100629.50;4822289;29;46592;-73
2022/09/16 05:58:56;;;;;;;;;9.50;9.00;;;;;15.86;64.54;100624.38;4822292;29;46056;-73
2022/09/16 06:01:25;;;;;;;;;11.75;11.75;;;;;15.95;64.45;100640.19;4822071;29;45703;-76
2022/09/16 06:03:53;;;;;;;;;15.25;10.25;;;;;15.88;64.46;100628.53;4822276;29;45714;-74
2022/09/16 06:06:23;;;;;;;;;12.50;9.75;;;;;16.02;64.39;100640.47;4822226;29;45653;-73
2022/09/16 06:08:49;;;;;;;;;12.25;10.50;;;;;16.00;64.41;100631.84;4821769;29;46204;-75
2022/09/16 06:11:16;;;;;;;;;11.25;8.75;;;;;16.00;64.25;100639.75;4822193;29;45474;-74
2022/09/16 06:13:41;;;;;;;;;10.50;10.00;;;;;16.04;64.37;100645.59;4820786;29;45541;-74
2022/09/16 06:16:08;;;;;;;;;13.00;11.50;;;;;16.05;64.30;100650.72;4821847;29;46860;-76
2022/09/16 06:18:35;;;;;;;;;14.25;13.50;;;;;16.06;64.27;100649.75;4820981;29;46087;-72
2022/09/16 06:21:09;;;;;;;;;12.75;12.25;;;;;16.01;64.58;100633.50;4821448;29;45678;-75
2022/09/16 06:23:36;;;;;;;;;15.00;11.75;;;;;16.08;64.28;100645.19;4822097;29;45535;-75
2022/09/16 06:26:04;;;;;;;;;13.25;13.00;;;;;16.08;64.25;100645.19;4821619;29;46407;-74
2022/09/16 06:28:30;;;;;;;;;18.75;17.00;;;;;16.13;64.23;100650.88;4821582;29;46010;-74
2022/09/16 06:31:11;;;;;;;;;17.50;14.00;;;;;16.17;63.92;100651.41;4806640;29;45705;-73
2022/09/16 06:33:38;;;;;;;;;10.50;10.50;;;;;16.16;63.76;100644.44;4824410;29;45528;-75
2022/09/16 06:36:09;;;;;;;;;15.50;14.00;;;;;16.19;63.60;100646.81;4825225;29;46489;-75
2022/09/16 06:38:35;;;;;;;;;15.25;14.00;;;;;16.27;63.55;100654.84;4823494;29;46434;-74
2022/09/16 06:41:03;;;;;;;;;17.25;14.75;;;;;16.26;63.48;100646.06;4825176;29;45726;-75
2022/09/16 06:43:29;;;;;;;;;14.50;13.75;;;;;16.33;63.42;100651.63;4825223;29;45493;-74
2022/09/16 06:45:57;;;;;;;;;14.50;13.00;;;;;16.36;63.52;100648.69;4824411;29;47039;-74
2022/09/16 06:48:22;;;;;;;;;12.25;11.00;;;;;16.40;63.42;100655.38;4823215;29;47383;-76
2022/09/16 06:50:48;;;;;;;;;16.50;14.50;;;;;16.35;62.95;100642.59;4824748;29;45623;-75
2022/09/16 06:53:15;;;;;;;;;15.75;13.00;;;;;16.45;63.23;100660.22;4824693;29;45586;-75
2022/09/16 06:55:40;;;;;;;;;12.25;10.75;;;;;16.48;62.80;100665.19;4824601;29;45823;-74
2022/09/16 06:58:05;;;;;;;;;13.75;12.75;;;;;16.50;63.09;100671.19;4824554;29;46886;-74
2022/09/16 07:00:32;;;;;;;;;14.00;10.00;;;;;16.52;62.89;100669.25;4823351;29;45815;-75
2022/09/16 07:03:01;;;;;;;;;10.75;10.00;;;;;16.51;62.75;100663.13;4824726;29;45478;-74
2022/09/16 07:05:26;;;;;;;;;15.00;12.50;;;;;16.50;62.50;100658.81;4807820;29;47258;-75
2022/09/16 07:11:14;;;;;;;;;14.50;11.50;;;;;16.66;62.49;100684.66;4824454;29;45526;-75
2022/09/16 07:13:41;;;;;;;;;11.25;11.25;;;;;16.65;62.19;100683.00;4822770;29;45509;-74
2022/09/16 07:16:12;;;;;;;;;11.75;10.00;;;;;16.70;62.29;100683.38;4823118;29;48474;-73
2022/09/16 07:18:38;;;;;;;;;15.75;13.50;;;;;16.72;62.56;100681.44;4823948;29;46244;-74
2022/09/16 07:21:27;;;;;;;;;10.50;9.75;;;;;16.79;62.12;100706.31;4824182;29;45527;-76
2022/09/16 07:23:54;;;;;;;;;13.00;11.50;;;;;16.81;61.72;100712.28;4823015;29;45779;-74
2022/09/16 07:26:21;;;;;;;;;13.50;13.00;;;;;16.75;61.97;100691.72;4824647;29;45650;-75
2022/09/16 07:28:49;;;;;;;;;13.25;12.00;;;;;16.84;61.84;100700.59;4824139;29;47120;-74
2022/09/16 07:31:24;;;;;;;;;11.50;11.00;;;;;16.90;62.17;100703.47;4824092;29;45788;-74
2022/09/16 07:33:50;;;;;;;;;12.00;11.50;;;;;16.94;62.17;100707.50;4824308;29;45690;-74
2022/09/16 07:36:21;;;;;;;;;14.25;11.75;;;;;16.93;61.93;100697.91;4824050;29;45521;-74
2022/09/16 07:38:48;;;;;;;;;11.00;10.50;;;;;16.98;61.42;100697.44;4823410;29;46178;-74
2022/09/16 07:41:25;;;;;;;;;11.75;11.00;;;;;17.04;61.42;100702.16;4823541;29;45627;-74
2022/09/16 07:43:53;;;;;;;;;11.00;11.00;;;;;17.08;61.19;100707.00;4822359;29;45815;-73
2022/09/16 07:46:22;;;;;;;;;10.75;10.00;;;;;17.07;61.38;100701.84;4823742;29;46656;-74
2022/09/16 07:48:48;;;;;;;;;12.75;12.00;;;;;17.09;60.70;100706.03;4823993;29;46112;-73
2022/09/16 07:58:08;;;;;;;;;9.25;8.75;;;;;17.22;60.58;100720.72;4823781;29;45673;-74
2022/09/16 08:00:33;;;;;;;;;11.75;11.25;;;;;17.26;60.07;100719.44;4823742;29;46125;-74
2022/09/16 08:02:59;;;;;;;;;12.75;11.00;;;;;17.31;60.05;100715.38;4806921;29;45663;-75
2022/09/16 08:05:24;;;;;;;;;12.50;12.50;;;;;17.40;59.70;100722.41;4823428;29;46019;-73
2022/09/16 08:07:50;;;;;;;;;10.75;10.75;;;;;17.44;59.40;100723.75;4823504;29;46333;-73
2022/09/16 08:10:15;;;;;;;;;8.00;7.00;;;;;17.49;59.05;100723.34;4823465;29;45777;-73
2022/09/16 08:12:41;;;;;;;;;11.00;10.25;;;;;17.47;58.78;100720.81;4823717;29;45610;-74
2022/09/16 08:15:07;;;;;;;;;10.75;8.00;;;;;17.51;58.58;100716.06;4823660;29;45502;-74
2022/09/16 08:17:35;;;;;;;;;8.00;6.75;;;;;17.60;58.55;100731.06;4823196;29;46432;-74
2022/09/16 08:20:03;;;;;;;;;12.00;10.00;;;;;17.63;57.90;100733.44;4823210;29;46209;-74
2022/09/16 08:22:28;;;;;;;;;8.25;7.25;;;;;17.66;57.62;100734.94;4823357;29;45856;-74
2022/09/16 08:24:53;;;;;;;;;8.75;8.25;;;;;17.65;57.16;100728.81;4823681;29;45775;-73
2022/09/16 08:27:19;;;;;;;;;9.50;7.75;;;;;17.70;56.97;100731.00;4823068;29;46382;-74
2022/09/16 08:29:44;;;;;;;;;9.75;7.00;;;;;17.58;57.31;100715.31;4823204;29;45630;-74
2022/09/16 08:32:11;;;;;;;;;7.25;7.25;;;;;17.62;56.93;100723.81;4823109;29;45604;-74
2022/09/16 08:34:38;;;;;;;;;11.00;7.00;;;;;17.65;56.33;100725.34;4806792;29;45653;-73
2022/09/16 08:37:03;;;;;;;;;6.00;6.00;;;;;17.72;56.14;100740.47;4822837;29;45576;-74
2022/09/16 08:39:29;;;;;;;;;5.50;4.25;;;;;17.76;55.25;100743.66;4823024;29;46280;-74
2022/09/16 08:42:19;;;;;;;;;6.00;4.00;;;;;17.77;54.95;100750.59;4823031;29;45917;-73
2022/09/16 08:45:08;;;;;;;;;6.00;5.00;;;;;17.77;54.81;100762.03;4823561;29;45639;-75
2022/09/16 08:47:47;;;;;;;;;5.00;5.00;;;;;17.78;55.09;100757.56;4822784;29;45547;-74
2022/09/16 08:50:36;;;;;;;;;5.25;5.00;;;;;17.79;54.77;100757.44;4822811;29;45733;-73
2022/09/16 08:53:09;;;;;;;;;4.25;4.00;;;;;17.76;54.69;100759.56;4822726;29;45708;-74
2022/09/16 08:55:39;;;;;;;;;4.00;3.00;;;;;17.78;54.17;100760.22;4822807;29;45739;-75
2022/09/16 08:58:13;;;;;;;;;4.00;3.50;;;;;17.81;53.57;100758.13;4822724;29;47326;-73
2022/09/16 09:00:40;;;;;;;;;5.00;4.00;;;;;17.85;53.39;100764.78;4822997;29;45912;-75
2022/09/16 09:03:16;;;;;;;;;3.75;3.25;;;;;17.80;53.54;100758.25;4823387;29;45645;-73
2022/09/16 09:05:55;;;;;;;;;5.25;4.00;;;;;17.92;53.38;100757.84;4823144;29;45633;-73
2022/09/16 09:08:45;;;;;;;;;4.25;3.75;;;;;17.96;52.63;100758.41;4822858;29;46485;-73
2022/09/16 09:11:35;;;;;;;;;2.50;2.00;;;;;18.02;52.83;100763.09;4822867;29;46732;-76
2022/09/16 09:14:06;;;;;;;;;3.50;3.00;;;;;18.06;52.12;100776.88;4821142;29;45675;-78
2022/09/16 09:16:51;;;;;;;;;2.25;2.25;;;;;18.08;52.12;100775.75;4822515;29;45850;-75
2022/09/16 09:20:04;;;;;;;;;3.50;2.00;;;;;18.15;51.64;100783.91;4822977;29;45771;-73
2022/09/16 09:26:15;;;;;;;;;4.25;4.00;;;;;18.23;51.46;100791.94;4748050;29;45773;-75
2022/09/16 09:29:23;;;;;;;;;4.00;3.25;;;;;18.21;50.60;100784.13;4747634;29;45696;-75
2022/09/16 09:32:04;;;;;;;;;4.00;4.00;;;;;18.23;50.05;100795.44;4694804;30;47194;-73
2022/09/16 09:34:30;;;;;;;;;4.75;3.50;;;;;18.24;50.24;100793.63;4694722;30;46609;-75
2022/09/16 09:40:20;;;;;;;;;4.00;4.00;;;;;18.25;49.80;100793.44;4695302;30;45648;-74
2022/09/16 09:43:06;;;;;;;;;5.00;5.00;;;;;18.27;50.18;100791.47;4694989;30;46401;-74
2022/09/16 09:45:42;;;;;;;;;3.00;3.00;;;;;18.26;49.92;100795.09;4695254;30;45916;-74
2022/09/16 09:48:46;;;;;;;;;4.50;4.50;;;;;18.30;49.12;100795.66;4694412;30;45763;-75
2022/09/16 09:51:23;;;;;;;;;4.00;3.25;;;;;18.32;49.48;100799.81;4677751;30;45612;-72
2022/09/16 09:57:21;;;;;;;;;3.00;3.00;;;;;18.45;48.43;100802.91;4677417;30;45791;-75
2022/09/16 09:59:57;;;;;;;;;3.00;3.00;;;;;18.53;48.35;100794.16;4722828;30;45630;-74
2022/09/16 10:02:24;;;;;;;;;3.00;2.00;;;;;18.53;47.94;100786.19;4729985;30;45639;-72
2022/09/16 10:04:49;;;;;;;;;3.00;3.00;;;;;18.54;48.64;100789.66;4729663;30;46565;-75
2022/09/16 10:07:19;;;;;;;;;6.25;4.50;;;;;18.58;48.31;100791.06;4733064;30;46218;-74
2022/09/16 10:13:11;;;;;;;;;5.00;4.50;;;;;18.73;47.71;100806.25;4786802;29;45733;-73
2022/09/16 10:15:37;;;;;;;;;6.00;5.50;;;;;18.78;47.99;100803.16;4786833;29;45742;-74
2022/09/16 10:18:20;;;;;;;;;5.50;4.50;;;;;18.80;47.38;100807.28;4786217;29;47353;-73
2022/09/16 10:20:56;;;;;;;;;3.00;2.75;;;;;18.78;46.57;100803.16;4786446;29;45725;-73
2022/09/16 10:23:24;;;;;;;;;3.25;3.00;;;;;18.79;46.28;100796.81;4786484;29;45692;-73
2022/09/16 10:26:04;;;;;;;;;4.00;2.25;;;;;18.78;45.42;100793.38;4816866;29;46825;-74
2022/09/16 10:28:30;;;;;;;;;4.00;3.00;;;;;18.78;44.51;100793.38;4824357;29;46090;-74
2022/09/16 10:30:58;;;;;;;;;6.00;6.00;;;;;18.77;44.98;100782.88;4822993;29;45646;-75
2022/09/16 10:33:29;;;;;;;;;9.50;8.00;;;;;18.82;44.94;100799.19;4821764;29;45967;-73
2022/09/16 10:36:01;;;;;;;;;9.25;6.50;;;;;18.85;44.69;100798.84;4822942;29;46981;-75
2022/09/16 10:38:55;;;;;;;;;2.00;2.00;;;;;18.86;44.03;100792.56;4823275;29;46205;-75
2022/09/16 10:41:25;;;;;;;;;3.25;2.50;;;;;18.88;43.32;100787.94;4822901;29;45705;-74
2022/09/16 10:43:57;;;;;;;;;2.50;2.50;;;;;18.93;43.02;100798.91;4822372;29;45669;-74
2022/09/16 10:46:23;;;;;;;;;0.75;0.75;;;;;18.91;41.24;100786.75;4824084;29;46491;-73
2022/09/16 10:48:53;;;;;;;;;2.00;1.00;;;;;19.01;40.83;100801.59;4823859;29;46408;-73
2022/09/16 10:51:21;;;;;;;;;1.00;1.00;;;;;19.01;41.16;100787.47;4824311;29;45700;-74
2022/09/16 10:53:54;;;;;;;;;1.75;1.00;;;;;19.12;41.26;100796.00;4823876;29;45663;-73
2022/09/16 10:56:23;;;;;;;;;1.00;1.00;;;;;19.17;40.96;100793.69;4824278;29;45697;-74
2022/09/16 10:59:00;;;;;;;;;1.00;1.00;;;;;19.23;40.88;100789.56;4824116;29;45636;-73
2022/09/16 11:01:51;;;;;;;;;1.00;1.00;;;;;19.33;41.42;100800.88;4822544;29;45746;-73
2022/09/16 11:04:41;;;;;;;;;2.00;2.00;;;;;19.40;41.10;100809.06;4824040;29;45711;-74
2022/09/16 11:07:30;;;;;;;;;2.00;2.00;;;;;19.43;41.08;100811.41;4823783;29;46466;-73
2022/09/16 11:10:16;;;;;;;;;2.50;2.00;;;;;19.42;41.26;100805.25;4823640;29;46050;-73
2022/09/16 11:13:04;;;;;;;;;2.00;2.00;;;;;19.37;41.49;100782.81;4823912;29;45706;-74
2022/09/16 11:15:46;;;;;;;;;2.00;2.00;;;;;19.47;41.14;100797.66;4824060;29;45919;-73
2022/09/16 11:18:20;;;;;;;;;2.00;1.25;;;;;19.50;41.72;100789.34;4822784;29;46657;-73
2022/09/16 11:21:16;;;;;;;;;1.75;1.00;;;;;19.52;41.59;100791.84;4823336;29;46302;-72
2022/09/16 11:27:28;;;;;;;;;1.75;1.00;;;;;19.51;42.15;100790.19;4823661;29;45740;-73
2022/09/16 11:29:53;;;;;;;;;2.00;2.00;;;;;19.52;42.10;100797.19;4806614;29;47823;-73
2022/09/16 11:32:43;;;;;;;;;4.00;3.00;;;;;19.52;42.66;100799.84;4822067;29;47317;-75
2022/09/16 11:35:28;;;;;;;;;2.00;2.00;;;;;19.47;42.70;100787.03;4823662;29;45755;-74
2022/09/16 11:44:37;;;;;;;;;3.00;3.00;;;;;19.55;42.08;100807.47;4823430;29;45791;-74
2022/09/16 11:47:17;;;;;;;;;2.00;2.00;;;;;19.55;41.76;100807.47;4823514;29;45671;-72
2022/09/16 11:49:54;;;;;;;;;1.00;1.00;;;;;19.52;41.95;100813.97;4823207;29;45796;-74
2022/09/16 11:52:45;;;;;;;;;1.75;1.75;;;;;19.52;41.80;100791.84;4823205;29;46605;-73
2022/09/16 11:55:33;;;;;;;;;2.50;1.00;;;;;19.54;42.13;100816.47;4748360;29;46548;-74
2022/09/16 11:58:04;;;;;;;;;2.00;1.00;;;;;19.56;41.40;100809.97;4733381;29;45798;-74
2022/09/16 12:00:33;;;;;;;;;2.00;2.00;;;;;19.61;42.24;100812.13;4732637;29;52167;-74
2022/09/16 12:03:19;;;;;;;;;1.00;1.00;;;;;19.53;41.12;100788.22;4748383;29;45670;-74
2022/09/16 12:06:02;;;;;;;;;2.00;2.00;;;;;19.61;41.49;100791.72;4747907;29;46074;-73
2022/09/16 12:11:54;;;;;;;;;2.00;2.00;;;;;19.73;41.08;100799.38;4745059;29;45683;-74
2022/09/16 12:14:22;;;;;;;;;3.25;3.00;;;;;19.76;41.25;100810.50;4745488;29;45955;-73
2022/09/16 12:16:57;;;;;;;;;2.00;1.25;;;;;19.80;41.09;100803.06;4747840;29;46024;-74
2022/09/16 12:19:34;;;;;;;;;2.50;2.00;;;;;19.82;40.75;100795.72;4747488;29;45692;-74
2022/09/16 12:22:54;;;;;;;;;3.00;1.50;;;;;19.85;40.29;100803.41;4747815;29;45744;-73
2022/09/16 12:28:44;;;;;;;;;1.25;1.25;;;;;19.82;39.28;100801.88;4694198;29;45988;-73
2022/09/16 12:31:12;;;;;;;;;2.50;2.00;;;;;19.83;39.43;100798.22;4698881;29;45746;-73
2022/09/16 12:33:45;;;;;;;;;2.00;1.25;;;;;19.81;38.74;100796.75;4747142;29;45821;-74
2022/09/16 12:36:15;;;;;;;;;2.00;2.00;;;;;19.80;38.82;100789.75;4747626;29;45720;-74
2022/09/16 12:38:40;;;;;;;;;2.00;1.00;;;;;19.80;38.56;100795.91;4747801;29;46167;-73
2022/09/16 12:44:27;;;;;;;;;3.00;1.75;;;;;19.83;38.43;100800.91;4747542;29;45863;-74
2022/09/16 12:47:10;;;;;;;;;2.75;1.00;;;;;19.78;37.93;100795.22;4748355;29;45786;-74
2022/09/16 12:49:54;;;;;;;;;3.00;3.00;;;;;19.77;38.24;100804.19;4747657;29;46400;-72
2022/09/16 12:52:50;;;;;;;;;2.00;2.00;;;;;19.79;37.77;100799.56;4732810;29;45853;-73